createdAt,value
2018-03-02T00:00:08.563Z,51.60
2018-03-02T00:02:36.179Z,58.80
2018-03-02T00:05:03.830Z,49.25
2018-03-02T00:07:31.439Z,50.40
2018-03-02T00:09:59.094Z,60.45
2018-03-02T00:12:26.711Z,56.05
2018-03-02T00:14:55.085Z,61.40
2018-03-02T00:17:22.715Z,55.70
2018-03-02T00:19:50.411Z,53.55
2018-03-02T00:22:18.041Z,59.60
2018-03-02T00:24:45.641Z,60.83
2018-03-02T00:27:13.339Z,51.10
2018-03-02T00:29:40.938Z,57.75
2018-03-02T00:32:09.344Z,60.53
2018-03-02T00:34:36.964Z,47.80
2018-03-02T00:37:04.578Z,56.60
2018-03-02T00:39:32.965Z,56.92
2018-03-02T00:42:00.585Z,55.03
2018-03-02T00:44:28.227Z,60.45
2018-03-02T00:46:56.608Z,56.72
2018-03-02T00:49:24.998Z,53.75
2018-03-02T00:51:53.366Z,58.67
2018-03-02T00:54:20.990Z,54.47
2018-03-02T00:56:48.607Z,54.95
2018-03-02T00:59:16.251Z,55.35
2018-03-02T01:01:43.949Z,50.67
2018-03-02T01:04:11.575Z,55.83
2018-03-02T01:06:39.297Z,64.05
2018-03-02T01:09:06.892Z,54.97
2018-03-02T01:11:34.514Z,56.15
2018-03-02T01:14:02.111Z,55.85
2018-03-02T01:16:29.759Z,54.35
2018-03-02T01:18:57.378Z,62.67
2018-03-02T01:21:25.028Z,56.85
2018-03-02T01:23:52.630Z,61.88
2018-03-02T01:26:20.291Z,60.12
2018-03-02T01:28:47.903Z,56.35
2018-03-02T01:31:16.335Z,63.92
2018-03-02T01:33:43.956Z,55.17
2018-03-02T01:36:11.559Z,67.20
2018-03-02T01:38:39.954Z,55.03
2018-03-02T01:41:07.572Z,63.78
2018-03-02T01:43:35.212Z,67.78
2018-03-02T01:46:02.810Z,63.80
2018-03-02T01:48:30.442Z,61.88
2018-03-02T01:50:58.157Z,58.80
2018-03-02T01:53:25.775Z,69.78
2018-03-02T01:55:53.386Z,67.97
2018-03-02T01:58:21.030Z,62.00
2018-03-02T02:00:49.445Z,62.97
2018-03-02T02:03:17.044Z,56.85
2018-03-02T02:05:44.658Z,56.88
2018-03-02T02:08:12.251Z,65.78
2018-03-02T02:10:40.641Z,61.47
2018-03-02T02:13:09.007Z,65.12
2018-03-02T02:15:36.629Z,68.53
2018-03-02T02:18:04.230Z,64.57
2018-03-02T02:20:32.272Z,65.72
2018-03-02T02:22:59.883Z,56.30
2018-03-02T02:25:27.508Z,63.33
2018-03-02T02:27:55.887Z,71.87
2018-03-02T02:30:23.486Z,63.72
2018-03-02T02:32:51.112Z,70.07
2018-03-02T02:35:18.721Z,69.37
2018-03-02T02:37:47.115Z,72.12
2018-03-02T02:40:14.735Z,70.30
2018-03-02T02:42:42.363Z,73.55
2018-03-02T02:45:10.735Z,65.87
2018-03-02T02:47:38.361Z,68.80
2018-03-02T02:50:05.965Z,81.05
2018-03-02T02:52:33.610Z,65.50
2018-03-02T02:55:01.222Z,70.60
2018-03-02T02:57:28.850Z,59.33
2018-03-02T02:59:56.471Z,76.18
2018-03-02T03:02:24.085Z,67.78
2018-03-02T03:04:51.718Z,66.60
2018-03-02T03:07:19.354Z,70.35
2018-03-02T03:09:46.988Z,68.78
2018-03-02T03:12:15.359Z,59.95
2018-03-02T03:14:43.316Z,76.07
2018-03-02T03:17:10.917Z,76.22
2018-03-02T03:19:38.537Z,63.03
2018-03-02T03:22:06.151Z,70.00
2018-03-02T03:24:34.258Z,72.80
2018-03-02T03:27:02.629Z,76.43
2018-03-02T03:29:30.214Z,64.37
2018-03-02T03:31:57.833Z,67.85
2018-03-02T03:34:25.435Z,65.97
2018-03-02T03:36:53.069Z,76.65
2018-03-02T03:39:20.681Z,76.50
2018-03-02T03:41:48.376Z,74.78
2018-03-02T03:44:15.997Z,82.15
2018-03-02T03:46:43.657Z,67.82
2018-03-02T03:49:12.037Z,71.40
2018-03-02T03:51:40.413Z,74.95
2018-03-02T03:54:08.059Z,74.82
2018-03-02T03:56:35.673Z,71.82
2018-03-02T03:59:04.051Z,65.68
2018-03-02T04:01:32.008Z,68.82
2018-03-02T04:03:59.613Z,77.43
2018-03-02T04:06:27.250Z,76.57
2018-03-02T04:08:54.859Z,80.55
2018-03-02T04:11:22.468Z,80.62
2018-03-02T04:13:50.089Z,81.90
2018-03-02T04:16:17.705Z,74.20
2018-03-02T04:18:46.112Z,65.50
2018-03-02T04:21:13.736Z,86.12
2018-03-02T04:23:41.392Z,72.90
2018-03-02T04:26:09.019Z,72.15
2018-03-02T04:28:37.390Z,68.32
2018-03-02T04:31:05.027Z,74.25
2018-03-02T04:33:32.626Z,78.43
2018-03-02T04:36:00.221Z,68.05
2018-03-02T04:38:27.859Z,67.87
2018-03-02T04:40:55.475Z,83.07
2018-03-02T04:43:23.879Z,77.37
2018-03-02T04:45:51.579Z,77.07
2018-03-02T04:48:19.183Z,82.20
2018-03-02T04:50:46.806Z,80.93
2018-03-02T04:53:14.408Z,70.55
2018-03-02T04:55:42.052Z,77.70
2018-03-02T04:58:09.653Z,73.78
2018-03-02T05:00:37.262Z,72.10
2018-03-02T05:03:04.913Z,80.00
2018-03-02T05:05:32.515Z,83.40
2018-03-02T05:08:00.606Z,79.47
2018-03-02T05:10:28.978Z,74.82
2018-03-02T05:12:56.631Z,68.97
2018-03-02T05:15:24.259Z,70.95
2018-03-02T05:17:51.912Z,78.10
2018-03-02T05:20:19.553Z,73.43
2018-03-02T05:22:47.166Z,70.47
2018-03-02T05:25:15.798Z,73.57
2018-03-02T05:27:43.424Z,88.57
2018-03-02T05:30:11.174Z,78.75
2018-03-02T05:32:38.791Z,76.90
2018-03-02T05:35:07.184Z,89.80
2018-03-02T05:37:35.828Z,71.87
2018-03-02T05:40:03.476Z,76.68
2018-03-02T05:42:31.077Z,83.68
2018-03-02T05:44:58.726Z,86.75
2018-03-02T05:47:26.534Z,75.32
2018-03-02T05:49:54.138Z,81.15
2018-03-02T05:52:21.765Z,81.47
2018-03-02T05:54:49.667Z,93.78
2018-03-02T05:57:17.396Z,87.25
2018-03-02T05:59:45.814Z,78.43
2018-03-02T06:02:13.483Z,72.40
2018-03-02T06:04:41.106Z,84.30
2018-03-02T06:07:08.706Z,85.72
2018-03-02T06:09:37.108Z,79.80
2018-03-02T06:12:04.706Z,82.25
2018-03-02T06:14:32.765Z,83.57
2018-03-02T06:17:00.401Z,77.53
2018-03-02T06:19:28.054Z,72.10
2018-03-02T06:21:55.794Z,78.57
2018-03-02T06:24:24.173Z,75.78
2018-03-02T06:26:52.581Z,79.18
2018-03-02T06:29:20.206Z,73.47
2018-03-02T06:31:47.816Z,79.85
2018-03-02T06:34:16.217Z,86.45
2018-03-02T06:36:43.815Z,79.35
2018-03-02T06:39:11.430Z,78.45
2018-03-02T06:41:39.064Z,76.70
2018-03-02T06:44:06.674Z,95.03
2018-03-02T06:46:34.307Z,94.50
2018-03-02T06:49:01.943Z,85.15
2018-03-02T06:51:30.318Z,80.55
2018-03-02T06:53:57.949Z,98.15
2018-03-02T06:56:25.564Z,85.70
2018-03-02T06:58:53.184Z,75.65
2018-03-02T07:01:20.788Z,86.75
2018-03-02T07:03:48.383Z,79.37
2018-03-02T07:06:15.990Z,70.57
2018-03-02T07:08:43.595Z,76.00
2018-03-02T07:11:11.258Z,77.72
2018-03-02T07:13:38.857Z,90.00
2018-03-02T07:16:06.730Z,83.25
2018-03-02T07:18:34.350Z,77.60
2018-03-02T07:21:02.968Z,82.85
2018-03-02T07:23:30.592Z,88.05
2018-03-02T07:25:58.224Z,75.07
2018-03-02T07:28:26.564Z,70.75
2018-03-02T07:30:54.185Z,71.00
2018-03-02T07:33:21.799Z,76.45
2018-03-02T07:35:49.452Z,71.53
2018-03-02T07:38:17.057Z,81.32
2018-03-02T07:40:44.662Z,74.90
2018-03-02T07:43:13.058Z,67.97
2018-03-02T07:45:40.666Z,78.35
2018-03-02T07:48:08.308Z,77.80
2018-03-02T07:50:35.906Z,80.78
2018-03-02T07:53:03.502Z,74.75
2018-03-02T07:55:31.121Z,72.10
2018-03-02T07:57:58.831Z,70.10
2018-03-02T08:00:26.470Z,71.80
2018-03-02T08:02:54.838Z,76.55
2018-03-02T08:05:22.433Z,78.40
2018-03-02T08:07:50.815Z,77.00
2018-03-02T08:10:19.264Z,70.80
2018-03-02T08:12:46.899Z,75.03
2018-03-02T08:15:14.501Z,72.15
2018-03-02T08:17:42.093Z,67.82
2018-03-02T08:20:09.710Z,70.12
2018-03-02T08:22:38.073Z,78.37
2018-03-02T08:25:05.722Z,76.55
2018-03-02T08:27:33.309Z,79.50
2018-03-02T08:30:00.908Z,77.53
2018-03-02T08:32:29.360Z,70.95
2018-03-02T08:34:56.954Z,70.32
2018-03-02T08:37:24.589Z,67.53
2018-03-02T08:39:52.283Z,71.15
2018-03-02T08:42:19.888Z,80.03
2018-03-02T08:44:47.510Z,76.40
2018-03-02T08:47:15.207Z,70.60
2018-03-02T08:49:42.870Z,70.93
2018-03-02T08:52:10.514Z,75.10
2018-03-02T08:54:38.122Z,73.53
2018-03-02T08:57:05.742Z,65.40
2018-03-02T08:59:34.110Z,70.95
2018-03-02T09:02:01.749Z,70.40
2018-03-02T09:04:29.354Z,74.78
2018-03-02T09:06:56.966Z,67.25
2018-03-02T09:09:24.576Z,70.12
2018-03-02T09:11:52.181Z,65.18
2018-03-02T09:14:19.818Z,72.80
2018-03-02T09:16:47.414Z,66.47
2018-03-02T09:19:15.012Z,69.87
2018-03-02T09:21:42.633Z,69.45
2018-03-02T09:24:10.234Z,71.22
2018-03-02T09:26:37.831Z,67.87
2018-03-02T09:29:05.476Z,56.03
2018-03-02T09:31:33.068Z,66.12
2018-03-02T09:34:00.701Z,56.63
2018-03-02T09:36:28.305Z,57.50
2018-03-02T09:38:55.915Z,61.37
2018-03-02T09:41:24.301Z,59.28
2018-03-02T09:43:52.719Z,63.80
2018-03-02T09:46:20.345Z,67.07
2018-03-02T09:48:47.945Z,63.28
2018-03-02T09:51:16.314Z,58.87
2018-03-02T09:53:43.932Z,63.38
2018-03-02T09:56:11.542Z,63.33
2018-03-02T09:58:39.212Z,61.03
2018-03-02T10:01:06.816Z,63.97
2018-03-02T10:03:34.418Z,62.35
2018-03-02T10:06:02.031Z,72.35
2018-03-02T10:08:29.618Z,65.07
2018-03-02T10:10:57.254Z,67.30
2018-03-02T10:13:24.938Z,67.30
2018-03-02T10:15:52.543Z,71.87
2018-03-02T10:18:20.162Z,65.93
2018-03-02T10:20:47.768Z,69.80
2018-03-02T10:23:15.396Z,65.47
2018-03-02T10:25:43.757Z,71.10
2018-03-02T10:28:11.351Z,61.30
2018-03-02T10:30:39.739Z,60.83
2018-03-02T10:33:07.347Z,68.87
2018-03-02T10:35:34.980Z,67.00
2018-03-02T10:38:02.581Z,67.90
2018-03-02T10:40:30.202Z,67.80
2018-03-02T10:42:57.828Z,63.58
2018-03-02T10:45:25.423Z,66.87
2018-03-02T10:47:53.042Z,68.87
2018-03-02T10:50:20.626Z,65.97
2018-03-02T10:52:48.235Z,65.65
2018-03-02T10:55:15.848Z,64.62
2018-03-02T10:57:43.449Z,70.72
2018-03-02T11:00:11.086Z,75.72
2018-03-02T11:02:44.402Z,74.62
2018-03-02T11:05:12.025Z,78.62
2018-03-02T11:07:39.622Z,76.70
2018-03-02T11:10:07.268Z,72.03
2018-03-02T11:12:34.902Z,67.40
2018-03-02T11:15:02.506Z,72.95
2018-03-02T11:17:33.612Z,72.28
2018-03-02T11:20:01.202Z,77.15
2018-03-02T11:22:28.790Z,92.22
2018-03-02T11:24:56.407Z,72.47
2018-03-02T11:27:23.992Z,79.87
2018-03-02T11:29:51.614Z,77.30
2018-03-02T11:32:19.214Z,79.80
2018-03-02T11:34:46.801Z,78.80
2018-03-02T11:37:14.417Z,73.50
2018-03-02T11:39:42.009Z,75.50
2018-03-02T11:42:09.632Z,76.95
2018-03-02T11:44:37.222Z,73.07
2018-03-02T11:47:04.856Z,74.55
2018-03-02T11:49:33.232Z,75.43
2018-03-02T11:52:01.634Z,78.65
2018-03-02T11:54:29.264Z,84.90
2018-03-02T11:56:56.881Z,73.28
2018-03-02T11:59:25.240Z,74.97
2018-03-02T12:01:52.859Z,74.00
2018-03-02T12:04:20.500Z,74.03
2018-03-02T12:06:48.117Z,78.00
2018-03-02T12:09:15.746Z,68.85
2018-03-02T12:11:43.349Z,71.70
2018-03-02T12:14:10.970Z,72.62
2018-03-02T12:16:38.558Z,79.93
2018-03-02T12:19:06.181Z,76.03
2018-03-02T12:21:33.766Z,79.07
2018-03-02T12:24:01.359Z,72.05
2018-03-02T12:26:28.995Z,72.57
2018-03-02T12:28:56.593Z,74.22
2018-03-02T12:31:24.209Z,62.83
2018-03-02T12:33:52.569Z,73.75
2018-03-02T12:36:20.181Z,69.53
2018-03-02T12:38:48.605Z,71.03
2018-03-02T12:41:16.186Z,70.85
2018-03-02T12:43:43.805Z,74.40
2018-03-02T12:46:11.410Z,66.80
2018-03-02T12:48:39.010Z,69.85
2018-03-02T12:51:06.629Z,65.82
2018-03-02T12:53:34.989Z,67.20
2018-03-02T12:56:02.627Z,71.80
2018-03-02T12:58:30.238Z,70.87
2018-03-02T13:00:57.836Z,72.07
2018-03-02T13:03:25.458Z,70.05
2018-03-02T13:05:53.048Z,75.57
2018-03-02T13:08:20.703Z,66.97
2018-03-02T13:10:48.304Z,68.28
2018-03-02T13:13:15.966Z,71.70
2018-03-02T13:15:43.624Z,76.12
2018-03-02T13:21:11.481Z,65.95
2018-03-02T13:23:39.132Z,71.95
2018-03-02T13:26:06.741Z,67.12
2018-03-02T13:28:54.714Z,66.65
2018-03-02T13:31:23.088Z,80.07
2018-03-02T13:34:02.598Z,59.17
2018-03-02T13:36:30.189Z,69.35
2018-03-02T13:38:57.785Z,75.03
2018-03-02T13:41:37.284Z,67.47
2018-03-02T13:44:04.981Z,65.68
2018-03-02T13:46:32.581Z,64.93
2018-03-02T13:49:12.246Z,71.97
2018-03-02T13:51:39.846Z,77.85
2018-03-02T13:54:07.475Z,69.05
2018-03-02T13:56:47.042Z,64.90
2018-03-02T13:59:14.713Z,68.35
2018-03-02T14:01:42.312Z,63.80
2018-03-02T14:04:22.498Z,62.95
2018-03-02T14:06:50.113Z,71.40
2018-03-02T14:09:17.714Z,72.82
2018-03-02T14:11:46.118Z,70.00
2018-03-02T14:14:14.486Z,76.40
2018-03-02T14:16:42.137Z,74.25
2018-03-02T14:19:10.541Z,71.93
2018-03-02T14:21:38.136Z,73.37
2018-03-02T14:24:06.514Z,72.82
2018-03-02T14:26:34.895Z,68.78
2018-03-02T14:29:02.546Z,72.30
2018-03-02T14:31:30.139Z,74.75
2018-03-02T14:33:57.756Z,76.80
2018-03-02T14:36:25.399Z,68.28
2018-03-02T14:38:53.005Z,69.55
2018-03-02T14:41:20.709Z,70.55
2018-03-02T14:43:48.413Z,69.15
2018-03-02T14:46:16.015Z,70.25
2018-03-02T14:48:44.264Z,77.60
2018-03-02T14:51:11.956Z,72.15
2018-03-02T14:53:39.673Z,77.22
2018-03-02T14:56:07.510Z,71.37
2018-03-02T14:58:35.611Z,71.78
2018-03-02T15:01:03.827Z,69.15
2018-03-02T15:03:33.362Z,68.55
2018-03-02T15:06:00.985Z,75.22
2018-03-02T15:08:28.714Z,77.28
2018-03-02T15:10:56.339Z,69.87
2018-03-02T15:13:24.015Z,72.05
2018-03-02T15:15:51.738Z,63.85
2018-03-02T15:18:19.380Z,69.15
2018-03-02T15:20:47.754Z,83.57
2018-03-02T15:23:15.351Z,69.35
2018-03-02T15:25:42.983Z,72.10
2018-03-02T15:28:10.647Z,68.57
2018-03-02T15:30:38.253Z,69.68
2018-03-02T15:33:05.855Z,64.43
2018-03-02T15:35:33.508Z,61.60
2018-03-02T15:38:01.908Z,80.12
2018-03-02T15:40:30.373Z,69.25
2018-03-02T15:42:58.053Z,63.00
2018-03-02T15:45:25.659Z,67.55
2018-03-02T15:47:53.618Z,66.50
2018-03-02T15:50:21.274Z,65.25
2018-03-02T15:52:48.888Z,67.32
2018-03-02T15:55:16.581Z,64.07
2018-03-02T15:57:44.212Z,61.15
2018-03-02T16:00:11.833Z,63.00
2018-03-02T16:02:39.489Z,67.40
2018-03-02T16:05:07.093Z,63.20
2018-03-02T16:07:34.703Z,58.58
2018-03-02T16:10:02.341Z,64.30
2018-03-02T16:12:30.035Z,65.37
2018-03-02T16:14:57.662Z,62.50
2018-03-02T16:17:25.378Z,66.85
2018-03-02T16:19:52.968Z,58.22
2018-03-02T16:22:20.591Z,63.08
2018-03-02T16:24:48.198Z,60.92
2018-03-02T16:27:15.826Z,63.83
2018-03-02T16:29:44.813Z,61.97
2018-03-02T16:32:13.281Z,64.12
2018-03-02T16:34:40.897Z,52.85
2018-03-02T16:37:09.271Z,60.05
2018-03-02T16:39:37.707Z,63.20
2018-03-02T16:42:05.310Z,57.65
2018-03-02T16:44:32.910Z,58.65
2018-03-02T16:47:00.881Z,64.90
2018-03-02T16:49:28.473Z,61.92
2018-03-02T16:51:56.941Z,61.08
2018-03-02T16:54:24.577Z,62.28
2018-03-02T16:56:52.334Z,63.90
2018-03-02T16:59:19.980Z,57.62
2018-03-02T17:01:47.577Z,58.20
2018-03-02T17:04:15.202Z,57.10
2018-03-02T17:06:42.817Z,60.65
2018-03-02T17:09:11.198Z,62.10
2018-03-02T17:11:39.585Z,54.90
2018-03-02T17:14:07.751Z,54.60
2018-03-02T17:16:36.189Z,70.95
2018-03-02T17:19:03.802Z,61.22
2018-03-02T17:21:31.435Z,64.65
2018-03-02T17:23:59.364Z,64.70
2018-03-02T17:26:27.613Z,59.95
2018-03-02T17:28:55.253Z,62.42
2018-03-02T17:31:23.409Z,61.83
2018-03-02T17:33:51.070Z,57.97
2018-03-02T17:36:19.016Z,59.70
2018-03-02T17:38:47.467Z,62.70
2018-03-02T17:41:15.365Z,56.83
2018-03-02T17:43:43.059Z,56.03
2018-03-02T17:46:13.208Z,50.70
2018-03-02T17:48:40.905Z,56.37
2018-03-02T17:51:08.651Z,60.17
2018-03-02T17:53:36.500Z,53.83
2018-03-02T17:56:05.835Z,56.92
2018-03-02T17:58:34.369Z,53.65
2018-03-02T18:01:02.476Z,60.85
2018-03-02T18:03:30.169Z,54.35
2018-03-02T18:05:57.924Z,53.90
2018-03-02T18:08:25.551Z,56.90
2018-03-02T18:10:54.476Z,54.75
2018-03-02T18:13:22.152Z,55.75
2018-03-02T18:15:49.784Z,51.50
2018-03-02T18:18:17.568Z,61.25
2018-03-02T18:20:45.355Z,55.00
2018-03-02T18:23:13.757Z,50.58
2018-03-02T18:25:42.161Z,53.58
2018-03-02T18:28:10.554Z,60.97
2018-03-02T18:30:38.205Z,58.38
2018-03-02T18:33:06.648Z,59.03
2018-03-02T18:35:34.402Z,58.92
2018-03-02T18:38:02.184Z,52.53
2018-03-02T18:40:29.791Z,51.42
2018-03-02T18:42:58.241Z,46.08
2018-03-02T18:45:25.848Z,48.95
2018-03-02T18:47:53.463Z,52.75
2018-03-02T18:50:21.581Z,48.28
2018-03-02T18:52:49.204Z,50.08
2018-03-02T18:55:16.852Z,52.28
2018-03-02T18:57:44.456Z,54.92
2018-03-02T19:00:12.146Z,49.72
2018-03-02T19:02:39.781Z,45.05
2018-03-02T19:05:08.163Z,52.10
2018-03-02T19:07:36.291Z,42.53
2018-03-02T19:10:04.057Z,46.80
2018-03-02T19:12:31.693Z,50.42
2018-03-02T19:14:59.361Z,46.95
2018-03-02T19:17:26.966Z,47.05
2018-03-02T19:19:54.595Z,53.60
2018-03-02T19:22:22.985Z,48.87
2018-03-02T19:24:50.582Z,48.42
2018-03-02T19:27:18.201Z,42.97
2018-03-02T19:29:45.831Z,51.05
2018-03-02T19:32:14.821Z,45.72
2018-03-02T19:34:43.390Z,48.55
2018-03-02T19:37:11.277Z,45.72
2018-03-02T19:39:40.537Z,54.47
2018-03-02T19:42:08.628Z,41.63
2018-03-02T19:44:36.328Z,48.25
2018-03-02T19:47:04.849Z,46.33
2018-03-02T19:49:33.238Z,49.97
2018-03-02T19:52:03.739Z,48.95
2018-03-02T19:54:32.773Z,41.75
2018-03-02T19:57:00.671Z,42.88
2018-03-02T19:59:28.412Z,48.28
2018-03-02T20:01:57.934Z,52.60
2018-03-02T20:04:25.723Z,46.08
2018-03-02T20:06:54.053Z,50.65
2018-03-02T20:09:21.742Z,44.90
2018-03-02T20:11:51.772Z,40.83
2018-03-02T20:14:19.463Z,43.17
2018-03-02T20:16:48.203Z,48.85
2018-03-02T20:19:19.765Z,49.05
2018-03-02T20:21:48.031Z,50.15
2018-03-02T20:24:15.744Z,44.92
2018-03-02T20:26:43.633Z,45.67
2018-03-02T20:29:13.531Z,44.67
2018-03-02T20:31:43.518Z,48.50
2018-03-02T20:34:12.125Z,51.83
2018-03-02T20:36:40.676Z,44.88
2018-03-02T20:39:09.020Z,46.58
2018-03-02T20:41:36.682Z,47.28
2018-03-02T20:44:07.245Z,48.80
2018-03-02T20:46:35.721Z,39.20
2018-03-02T20:49:03.366Z,53.25
2018-03-02T20:51:31.001Z,46.15
2018-03-02T20:53:58.665Z,44.58
2018-03-02T20:56:26.304Z,45.75
2018-03-02T20:58:53.975Z,49.25
2018-03-02T21:01:21.630Z,49.10
2018-03-02T21:03:50.692Z,42.50
2018-03-02T21:06:18.323Z,44.95
2018-03-02T21:08:46.016Z,41.37
2018-03-02T21:11:13.683Z,43.50
2018-03-02T21:13:41.293Z,45.33
2018-03-02T21:16:10.454Z,47.35
2018-03-02T21:18:38.154Z,42.55
2018-03-02T21:21:05.754Z,44.28
2018-03-02T21:23:33.379Z,44.60
2018-03-02T21:26:01.149Z,47.25
2018-03-02T21:28:28.858Z,44.55
2018-03-02T21:30:56.746Z,41.70
2018-03-02T21:33:24.406Z,40.72
2018-03-02T21:35:52.069Z,48.65
2018-03-02T21:38:19.682Z,38.78
2018-03-02T21:40:47.521Z,46.03
2018-03-02T21:43:15.215Z,42.13
2018-03-02T21:45:42.941Z,38.28
2018-03-02T21:48:12.139Z,57.10
2018-03-02T21:50:40.092Z,42.10
2018-03-02T21:53:07.707Z,44.35
2018-03-02T21:55:35.347Z,47.20
2018-03-02T21:58:03.178Z,41.80
2018-03-02T22:00:30.833Z,51.78
2018-03-02T22:02:59.361Z,41.35
2018-03-02T22:05:27.000Z,46.20
2018-03-02T22:07:54.623Z,46.20
2018-03-02T22:10:22.540Z,45.20
2018-03-02T22:12:50.582Z,48.20
2018-03-02T22:15:18.297Z,49.45
2018-03-02T22:17:46.728Z,53.22
2018-03-02T22:20:14.457Z,44.05
2018-03-02T22:22:42.958Z,38.50
2018-03-02T22:25:10.628Z,42.88
2018-03-02T22:27:38.426Z,51.13
2018-03-02T22:30:06.871Z,44.15
2018-03-02T22:32:34.742Z,45.47
2018-03-02T22:35:02.803Z,39.20
2018-03-02T22:37:30.510Z,43.33
2018-03-02T22:39:58.334Z,42.97
2018-03-02T22:42:26.887Z,41.75
2018-03-02T22:44:54.540Z,45.12
2018-03-02T22:47:22.251Z,50.80
2018-03-02T22:49:50.117Z,43.87
2018-03-02T22:52:17.874Z,44.30
2018-03-02T22:54:45.839Z,45.00
2018-03-02T22:57:13.599Z,39.45
2018-03-02T22:59:41.973Z,43.97
2018-03-02T23:02:09.906Z,52.10
2018-03-02T23:04:37.538Z,43.42
2018-03-02T23:07:06.815Z,47.90
2018-03-02T23:09:34.586Z,40.00
2018-03-02T23:12:02.347Z,44.03
2018-03-02T23:14:30.090Z,46.60
2018-03-02T23:16:57.737Z,40.45
2018-03-02T23:19:25.952Z,41.75
2018-03-02T23:21:54.534Z,48.55
2018-03-02T23:24:22.219Z,45.22
2018-03-02T23:26:50.618Z,53.05
2018-03-02T23:31:51.092Z,39.08
2018-03-02T23:34:18.791Z,45.53
2018-03-02T23:36:46.463Z,36.85
2018-03-02T23:39:14.166Z,49.72
2018-03-02T23:41:41.782Z,42.67
2018-03-02T23:44:10.207Z,47.45
2018-03-02T23:46:38.996Z,47.08
2018-03-02T23:49:06.670Z,47.80
2018-03-02T23:51:34.283Z,51.58
2018-03-02T23:54:03.055Z,45.45
2018-03-02T23:56:30.724Z,40.70
2018-03-02T23:58:58.493Z,42.85
